クライストチャーチ の空港の天気 - METARとTAF

クライストチャーチ国際空港 ( NZCH / CHC ) - ニュージーランド クライストチャーチ
飛行場実況気象(Metar)
観測時間10/16 19:30 NZDT (10/16 06:30 UTC)
風向・風速東北東 6m/s
視程10km以上
天気現象
なし
気温11℃
湿度82%
気圧1020hPa
METARNZCH 160630Z AUTO 06012KT 9999 NCD 11/08 Q1020 NOSIG
過去の天気等 Google飛行場航空写真 Wunderground天気予報

過去48時間のMETAR

飛行場予報(TAF)
発表時間: 10/16 18:02 NZDT (10/16 05:02 UTC)
予報対象時間: 16日19時 NZDT ~ 17日19時 NZDT
風向・風速東北東 8m/s
視程10km以上
少しの雲 雲底高度 910m
16日20時 NZDT ~ 16日22時 NZDT に徐々に
風向・風速西北西 4m/s
TAF NZCH 160502Z 1606/1706 06015KT 9999 FEW030
BECMG 1607/1609 29008KT